Time;durP1;ratioP1;P1;durP2;ratioP2;P2;SDS_P1;SDS_P2;PMS_P1;PMS_P2;Temp;Humidity;BMP_temperature;BMP_pressure;BME280_temperature;BME280_humidity;BME280_pressure;Samples;Min_cycle;Max_cycle;Signal;HPM_P1;HPM_P2
2022/12/06 00:01:24;;;;;;;;;;;;;;;15.33;51.49;101828.80;101971;1334;61270;-83
2022/12/06 00:03:51;;;;;;;;;;;;;;;15.33;51.43;101824.02;102059;1329;75798;-83
2022/12/06 00:06:18;;;;;;;;;;;;;;;15.34;51.42;101828.08;102010;1329;61216;-85
2022/12/06 00:08:44;;;;;;;;;;;;;;;15.34;51.43;101823.64;102022;1329;61630;-84
2022/12/06 00:11:32;;;;;;;;;;;;;;;15.34;51.45;101821.88;102056;1329;61425;-84
2022/12/06 00:13:59;;;;;;;;;;;;;;;15.34;51.42;101824.69;101784;1334;74723;-84
2022/12/06 00:16:24;;;;;;;;;;;;;;;15.35;51.41;101824.14;101840;1338;61274;-85
2022/12/06 00:18:51;;;;;;;;;;;;;;;15.35;51.44;101822.19;101749;1336;61350;-84
2022/12/06 00:21:19;;;;;;;;;;;;;;;15.35;51.46;101821.09;101710;1335;61400;-84
2022/12/06 00:23:46;;;;;;;;;;;;;;;15.35;51.44;101822.17;101747;1330;74476;-83
2022/12/06 00:26:11;;;;;;;;;;;;;;;15.36;51.40;101820.38;101741;1326;61362;-84
2022/12/06 00:28:37;;;;;;;;;;;;;;;15.36;51.36;101822.66;101768;1341;61320;-84
2022/12/06 00:31:03;;;;;;;;;;;;;;;15.37;51.52;101813.60;101737;1335;61333;-84
2022/12/06 00:33:28;;;;;;;;;;;;;;;15.37;51.43;101814.48;101782;1323;61430;-84
2022/12/06 00:35:57;;;;;;;;;;;;;;;15.37;51.40;101808.64;101755;1335;62558;-84
2022/12/06 00:38:23;;;;;;;;;;;;;;;15.38;51.45;101807.73;101746;1333;61454;-84
2022/12/06 00:40:48;;;;;;;;;;;;;;;15.38;51.36;101809.86;101742;1336;61476;-84
2022/12/06 00:43:13;;;;;;;;;;;;;;;15.38;51.39;101813.59;101726;1339;61380;-84
2022/12/06 00:45:39;;;;;;;;;;;;;;;15.38;51.37;101814.27;101786;1341;61401;-84
2022/12/06 00:48:04;;;;;;;;;;;;;;;15.39;51.36;101811.77;101720;1341;61346;-85
2022/12/06 00:50:30;;;;;;;;;;;;;;;15.39;51.30;101816.39;101770;1335;61346;-84
2022/12/06 00:52:55;;;;;;;;;;;;;;;15.39;51.44;101814.06;102059;1334;61279;-84
2022/12/06 00:55:21;;;;;;;;;;;;;;;15.39;51.27;101807.52;102040;1329;61479;-84
2022/12/06 00:57:47;;;;;;;;;;;;;;;15.39;51.36;101806.44;102020;1326;61407;-84
2022/12/06 01:00:12;;;;;;;;;;;;;;;15.40;51.41;101805.00;102136;1332;61240;-83
2022/12/06 01:02:38;;;;;;;;;;;;;;;15.40;51.35;101804.81;101973;1329;61467;-83
2022/12/06 01:05:03;;;;;;;;;;;;;;;15.41;51.39;101801.96;102072;1333;61261;-84
2022/12/06 01:07:29;;;;;;;;;;;;;;;15.40;51.34;101797.73;102060;1326;61280;-84
2022/12/06 01:09:54;;;;;;;;;;;;;;;15.41;51.35;101795.92;102009;1329;61761;-85
2022/12/06 01:12:20;;;;;;;;;;;;;;;15.41;51.35;101789.70;102107;1333;61239;-84
2022/12/06 01:14:45;;;;;;;;;;;;;;;15.41;51.30;101787.91;101951;1332;61358;-84
2022/12/06 01:17:14;;;;;;;;;;;;;;;15.42;51.42;101787.20;101971;1334;61307;-84
2022/12/06 01:19:39;;;;;;;;;;;;;;;15.42;51.36;101791.45;102076;1326;61300;-83
2022/12/06 01:22:04;;;;;;;;;;;;;;;15.43;51.34;101788.75;102089;1329;61429;-83
2022/12/06 01:24:30;;;;;;;;;;;;;;;15.43;51.36;101789.98;102072;1327;61381;-83
2022/12/06 01:26:55;;;;;;;;;;;;;;;15.43;51.29;101786.80;101987;1328;61480;-84
2022/12/06 01:29:22;;;;;;;;;;;;;;;15.43;51.30;101786.61;102135;1330;61341;-84
2022/12/06 01:31:47;;;;;;;;;;;;;;;15.43;51.31;101785.20;102065;1329;74663;-84
2022/12/06 01:34:13;;;;;;;;;;;;;;;15.44;51.33;101783.05;102082;1332;61367;-85
2022/12/06 01:36:39;;;;;;;;;;;;;;;15.44;51.32;101783.59;101991;1326;61296;-85
2022/12/06 01:39:09;;;;;;;;;;;;;;;15.45;51.35;101780.92;101962;1335;61770;-83
2022/12/06 01:41:34;;;;;;;;;;;;;;;15.45;51.32;101780.17;102010;1332;74542;-84
2022/12/06 01:44:00;;;;;;;;;;;;;;;15.45;51.31;101775.56;102063;1329;60017;-84
2022/12/06 01:46:38;;;;;;;;;;;;;;;15.46;51.31;101773.60;101998;1328;62960;-84
2022/12/06 01:49:07;;;;;;;;;;;;;;;15.46;51.36;101773.95;102087;1329;71495;-84
2022/12/06 01:51:33;;;;;;;;;;;;;;;15.46;51.24;101769.14;102124;1332;75402;-84
2022/12/06 01:53:58;;;;;;;;;;;;;;;15.46;51.34;101767.73;102078;1332;61390;-84
2022/12/06 01:56:23;;;;;;;;;;;;;;;15.46;51.31;101764.36;102034;1334;61349;-85
2022/12/06 01:58:49;;;;;;;;;;;;;;;15.47;51.24;101765.41;102087;1332;61313;-84
2022/12/06 02:01:15;;;;;;;;;;;;;;;15.47;51.29;101762.92;102010;1331;61877;-85
2022/12/06 02:03:40;;;;;;;;;;;;;;;15.47;51.33;101761.14;102043;1329;61328;-84
2022/12/06 02:06:06;;;;;;;;;;;;;;;15.48;51.34;101761.30;102041;1329;61331;-84
2022/12/06 02:08:31;;;;;;;;;;;;;;;15.48;51.30;101760.75;102016;1330;61415;-85
2022/12/06 02:10:57;;;;;;;;;;;;;;;15.48;51.26;101761.10;101994;1334;61344;-83
2022/12/06 02:13:23;;;;;;;;;;;;;;;15.48;51.31;101752.76;101968;1329;61450;-84
2022/12/06 02:16:01;;;;;;;;;;;;;;;15.49;51.31;101749.38;102114;1335;61339;-83
2022/12/06 02:18:36;;;;;;;;;;;;;;;15.49;51.26;101746.89;102146;1329;61337;-83
2022/12/06 02:21:07;;;;;;;;;;;;;;;15.49;51.30;101739.77;102072;1330;61224;-84
2022/12/06 02:23:33;;;;;;;;;;;;;;;15.50;51.37;101734.80;102129;1331;72562;-83
2022/12/06 02:26:04;;;;;;;;;;;;;;;15.50;51.30;101732.84;102038;1326;61493;-83
2022/12/06 02:28:36;;;;;;;;;;;;;;;15.50;51.24;101734.60;102132;1320;61253;-84
2022/12/06 02:31:03;;;;;;;;;;;;;;;15.50;51.27;101735.66;102091;1335;61286;-83
2022/12/06 02:33:29;;;;;;;;;;;;;;;15.51;51.23;101733.70;102105;1333;72591;-83
2022/12/06 02:36:30;;;;;;;;;;;;;;;15.51;51.31;101726.41;102101;1326;61380;-83
2022/12/06 02:38:56;;;;;;;;;;;;;;;15.52;51.29;101727.45;101796;1334;61299;-84
2022/12/06 02:41:26;;;;;;;;;;;;;;;15.52;51.22;101724.23;101779;1333;61275;-84
2022/12/06 02:43:55;;;;;;;;;;;;;;;15.52;51.19;101726.89;101764;1341;72966;-84
2022/12/06 02:46:21;;;;;;;;;;;;;;;15.53;51.24;101722.98;101770;1332;75588;-84
2022/12/06 02:48:46;;;;;;;;;;;;;;;15.52;51.23;101723.86;101756;1342;61385;-84
2022/12/06 02:51:12;;;;;;;;;;;;;;;15.53;51.26;101724.73;101833;1338;61328;-84
2022/12/06 02:53:39;;;;;;;;;;;;;;;15.53;51.14;101721.19;101739;1335;61283;-84
2022/12/06 02:56:04;;;;;;;;;;;;;;;15.53;51.27;101723.67;101749;1335;61679;-84
2022/12/06 02:58:36;;;;;;;;;;;;;;;15.54;51.26;101723.84;101762;1341;61605;-83
2022/12/06 03:01:02;;;;;;;;;;;;;;;15.54;51.20;101722.06;101733;1335;61265;-83
2022/12/06 03:03:46;;;;;;;;;;;;;;;15.54;51.23;101717.44;101769;1331;61237;-83
2022/12/06 03:06:17;;;;;;;;;;;;;;;15.54;51.21;101711.93;101817;1340;75579;-83
2022/12/06 03:08:52;;;;;;;;;;;;;;;15.55;51.19;101707.84;101823;1333;61270;-83
2022/12/06 03:11:17;;;;;;;;;;;;;;;15.55;51.22;101707.65;101759;1341;61327;-83
2022/12/06 03:13:54;;;;;;;;;;;;;;;15.55;51.19;101706.05;101875;1329;61341;-83
2022/12/06 03:16:27;;;;;;;;;;;;;;;15.55;51.18;101702.33;102080;1333;76079;-84
2022/12/06 03:18:52;;;;;;;;;;;;;;;15.56;51.19;101700.88;102007;1326;61163;-84
2022/12/06 03:21:22;;;;;;;;;;;;;;;15.56;51.23;101702.99;102044;1333;61526;-85
2022/12/06 03:23:48;;;;;;;;;;;;;;;15.56;51.27;101703.88;102082;1328;72656;-83
2022/12/06 03:26:16;;;;;;;;;;;;;;;15.57;51.17;101703.68;102080;1333;61324;-83
2022/12/06 03:28:41;;;;;;;;;;;;;;;15.57;51.17;101705.27;101991;1333;59857;-82
2022/12/06 03:31:10;;;;;;;;;;;;;;;15.57;51.17;101701.72;101991;1334;61338;-83
2022/12/06 03:33:36;;;;;;;;;;;;;;;15.57;51.14;101695.14;102095;1333;72457;-84
2022/12/06 03:36:02;;;;;;;;;;;;;;;15.57;51.14;101699.94;102009;1334;61295;-83
2022/12/06 03:38:39;;;;;;;;;;;;;;;15.58;51.14;101698.86;102073;1330;61408;-84
2022/12/06 03:41:05;;;;;;;;;;;;;;;15.58;51.18;101695.48;101991;1326;61214;-84
2022/12/06 03:43:30;;;;;;;;;;;;;;;15.59;51.14;101693.14;102078;1333;61413;-84
2022/12/06 03:46:05;;;;;;;;;;;;;;;15.58;51.17;101693.51;101952;1334;61313;-84
2022/12/06 03:48:38;;;;;;;;;;;;;;;15.59;51.10;101688.52;102086;1328;61169;-84
2022/12/06 03:51:04;;;;;;;;;;;;;;;15.60;51.10;101686.90;102133;1330;61317;-83
2022/12/06 03:53:30;;;;;;;;;;;;;;;15.60;51.09;101688.30;101973;1329;61201;-85
2022/12/06 03:55:56;;;;;;;;;;;;;;;15.60;51.10;101689.55;102110;1327;59583;-84
2022/12/06 03:58:21;;;;;;;;;;;;;;;15.61;51.08;101692.04;102024;1329;61368;-84
2022/12/06 04:00:47;;;;;;;;;;;;;;;15.61;51.14;101692.02;102083;1330;61402;-84
2022/12/06 04:03:12;;;;;;;;;;;;;;;15.61;51.16;101689.88;102087;1334;61383;-84
2022/12/06 04:05:37;;;;;;;;;;;;;;;15.62;51.21;101693.40;102036;1319;61369;-84
2022/12/06 04:08:03;;;;;;;;;;;;;;;15.62;51.10;101695.88;102008;1333;61410;-84
2022/12/06 04:10:28;;;;;;;;;;;;;;;15.63;51.08;101693.91;102037;1326;61805;-84
2022/12/06 04:13:00;;;;;;;;;;;;;;;15.62;51.11;101696.25;102031;1335;59885;-84
2022/12/06 04:15:26;;;;;;;;;;;;;;;15.63;51.13;101701.01;102060;1326;73421;-84
2022/12/06 04:18:10;;;;;;;;;;;;;;;15.62;51.11;101699.60;102061;1335;61314;-84
2022/12/06 04:23:47;;;;;;;;;;;;;;;15.63;51.12;101701.53;102106;1326;61787;-85
2022/12/06 04:26:13;;;;;;;;;;;;;;;15.63;51.07;101695.83;101987;1334;61268;-84
2022/12/06 04:39:36;;;;;;;;;;;;;;;15.65;51.06;101686.23;102087;1330;74353;-84
2022/12/06 04:44:46;;;;;;;;;;;;;;;15.65;51.14;101690.09;102080;1333;61201;-84
2022/12/06 04:47:11;;;;;;;;;;;;;;;15.66;51.05;101688.65;102072;1332;61361;-84
2022/12/06 04:49:37;;;;;;;;;;;;;;;15.65;51.07;101689.38;101974;1329;61372;-83
2022/12/06 04:52:03;;;;;;;;;;;;;;;15.66;51.04;101688.28;102019;1330;61206;-84
2022/12/06 04:54:29;;;;;;;;;;;;;;;15.66;51.09;101688.29;102101;1327;61391;-83
2022/12/06 04:56:56;;;;;;;;;;;;;;;15.67;51.03;101687.38;101982;1336;61206;-83
2022/12/06 04:59:21;;;;;;;;;;;;;;;15.67;51.12;101687.04;102009;1329;61289;-83
2022/12/06 05:01:47;;;;;;;;;;;;;;;15.67;51.09;101687.02;101976;1330;61270;-84
2022/12/06 05:04:15;;;;;;;;;;;;;;;15.68;51.01;101690.70;102089;1333;61194;-83
2022/12/06 05:06:40;;;;;;;;;;;;;;;15.67;51.05;101683.81;102093;1332;61140;-83
2022/12/06 05:09:06;;;;;;;;;;;;;;;15.68;51.06;101684.33;102046;1320;61417;-83
2022/12/06 05:11:31;;;;;;;;;;;;;;;15.68;51.06;101682.36;101959;1330;61335;-83
2022/12/06 05:13:57;;;;;;;;;;;;;;;15.69;51.05;101680.93;102071;1330;61446;-82
2022/12/06 05:16:23;;;;;;;;;;;;;;;15.69;51.01;101678.79;102121;1332;61350;-83
2022/12/06 05:18:48;;;;;;;;;;;;;;;15.69;51.01;101670.09;102001;1321;62239;-83
2022/12/06 05:21:17;;;;;;;;;;;;;;;15.68;50.89;101667.44;101785;1321;61341;-83
2022/12/06 05:23:43;;;;;;;;;;;;;;;15.69;50.94;101665.83;101868;1324;74256;-83
2022/12/06 05:26:12;;;;;;;;;;;;;;;15.69;50.88;101665.30;101879;1330;61343;-84
2022/12/06 05:28:37;;;;;;;;;;;;;;;15.69;50.87;101660.50;101865;1316;61543;-84
2022/12/06 05:31:03;;;;;;;;;;;;;;;15.69;50.73;101660.69;101834;1331;61345;-83
2022/12/06 05:33:29;;;;;;;;;;;;;;;15.69;50.81;101659.80;101844;1320;61374;-84
2022/12/06 05:35:55;;;;;;;;;;;;;;;15.69;50.75;101657.67;101892;1322;61215;-84
2022/12/06 05:38:22;;;;;;;;;;;;;;;15.69;50.75;101655.73;101704;1317;61475;-83
2022/12/06 05:40:48;;;;;;;;;;;;;;;15.68;50.75;101652.56;101713;1330;61338;-84
2022/12/06 05:43:14;;;;;;;;;;;;;;;15.68;50.72;101653.79;101796;1317;62041;-85
2022/12/06 05:45:40;;;;;;;;;;;;;;;15.70;50.78;101653.19;101802;1319;60148;-84
2022/12/06 05:48:05;;;;;;;;;;;;;;;15.70;50.69;101648.56;101629;1322;61407;-83
2022/12/06 05:50:31;;;;;;;;;;;;;;;15.68;50.60;101647.94;101624;1319;62951;-83
2022/12/06 05:52:57;;;;;;;;;;;;;;;15.65;50.76;101649.83;101170;1311;743680;-83
2022/12/06 05:55:22;;;;;;;;;;;;;;;15.62;50.75;101653.48;101671;1323;61321;-83
2022/12/06 05:57:48;;;;;;;;;;;;;;;15.58;50.75;101661.41;101645;1310;61343;-84
2022/12/06 06:00:14;;;;;;;;;;;;;;;15.56;50.86;101664.66;101517;1317;61380;-84
2022/12/06 06:02:40;;;;;;;;;;;;;;;15.55;50.89;101662.41;101322;1316;61481;-85
2022/12/06 06:05:05;;;;;;;;;;;;;;;15.54;50.96;101659.77;101457;1321;61325;-84
2022/12/06 06:07:32;;;;;;;;;;;;;;;15.53;51.06;101659.10;101441;1313;61376;-85
2022/12/06 06:09:59;;;;;;;;;;;;;;;15.53;51.17;101659.30;101460;1314;61355;-83
2022/12/06 06:12:25;;;;;;;;;;;;;;;15.53;51.15;101661.40;101466;1317;61315;-83
2022/12/06 06:15:15;;;;;;;;;;;;;;;15.55;51.13;101667.02;101418;1319;61330;-83
2022/12/06 06:17:42;;;;;;;;;;;;;;;15.55;51.10;101665.77;101346;1316;74468;-83
2022/12/06 06:20:10;;;;;;;;;;;;;;;15.56;51.23;101662.73;101355;1318;61332;-82
2022/12/06 06:23:02;;;;;;;;;;;;;;;15.56;51.14;101657.21;101335;1323;61863;-83
2022/12/06 06:25:27;;;;;;;;;;;;;;;15.56;51.22;101657.02;100948;1329;73792;-83
2022/12/06 06:27:54;;;;;;;;;;;;;;;15.57;51.27;101657.55;100736;1332;61337;-82
2022/12/06 06:30:22;;;;;;;;;;;;;;;15.57;51.29;101658.25;100920;1331;61490;-83
2022/12/06 06:32:47;;;;;;;;;;;;;;;15.57;51.35;101653.82;100886;1329;61319;-83
2022/12/06 06:35:39;;;;;;;;;;;;;;;15.57;51.28;101652.38;100741;1332;61448;-83
2022/12/06 06:38:05;;;;;;;;;;;;;;;15.59;51.33;101648.95;100307;1331;74530;-83
2022/12/06 06:40:58;;;;;;;;;;;;;;;15.61;51.33;101653.70;100280;1334;61439;-82
2022/12/06 06:43:24;;;;;;;;;;;;;;;15.60;51.33;101651.77;99861;1336;61465;-82
2022/12/06 06:45:53;;;;;;;;;;;;;;;15.59;51.26;101655.86;99733;1344;61461;-84
2022/12/06 06:48:19;;;;;;;;;;;;;;;15.58;51.40;101648.96;99622;1344;74636;-83
2022/12/06 06:50:45;;;;;;;;;;;;;;;15.59;51.43;101649.11;99803;1336;61554;-83
2022/12/06 06:53:10;;;;;;;;;;;;;;;15.58;51.41;101641.73;99715;1336;61451;-83
2022/12/06 06:55:36;;;;;;;;;;;;;;;15.57;51.41;101641.03;99745;1341;61346;-83
2022/12/06 06:58:03;;;;;;;;;;;;;;;15.58;51.53;101634.98;100199;1340;61574;-83
2022/12/06 07:00:31;;;;;;;;;;;;;;;15.62;51.73;101629.70;99907;1333;61347;-83
2022/12/06 07:02:56;;;;;;;;;;;;;;;15.67;51.91;101625.27;100044;1330;61459;-82
2022/12/06 07:05:23;;;;;;;;;;;;;;;15.70;51.95;101621.42;100404;1335;61314;-84
2022/12/06 07:07:49;;;;;;;;;;;;;;;15.70;52.05;101621.94;100250;1337;62914;-82
2022/12/06 07:10:14;;;;;;;;;;;;;;;15.71;52.09;101627.93;100514;1337;61372;-83
2022/12/06 07:12:40;;;;;;;;;;;;;;;15.73;52.17;101631.98;100552;1335;61432;-82
2022/12/06 07:15:06;;;;;;;;;;;;;;;15.73;52.16;101640.84;100557;1326;62246;-82
2022/12/06 07:17:32;;;;;;;;;;;;;;;15.74;52.18;101644.17;100881;1334;62199;-81
2022/12/06 07:19:57;;;;;;;;;;;;;;;15.74;52.28;101641.33;100982;1318;59916;-83
2022/12/06 07:22:24;;;;;;;;;;;;;;;15.75;52.32;101642.20;101497;1313;61941;-83
2022/12/06 07:24:49;;;;;;;;;;;;;;;15.75;52.38;101643.25;101578;1313;61370;-82
2022/12/06 07:27:15;;;;;;;;;;;;;;;15.75;52.37;101645.02;101471;1318;61403;-82
2022/12/06 07:29:41;;;;;;;;;;;;;;;15.76;52.42;101638.78;101557;1319;61291;-83
2022/12/06 07:32:06;;;;;;;;;;;;;;;15.77;52.50;101637.87;101550;1318;61322;-82
2022/12/06 07:34:34;;;;;;;;;;;;;;;15.78;52.44;101634.63;101498;1316;59491;-82
2022/12/06 07:36:59;;;;;;;;;;;;;;;15.80;52.56;101632.63;101561;1311;61439;-82
2022/12/06 07:39:25;;;;;;;;;;;;;;;15.81;52.56;101628.00;101446;1313;61470;-83
2022/12/06 07:47:19;;;;;;;;;;;;;;;15.82;52.61;101631.88;101459;1313;61513;-82
2022/12/06 07:49:45;;;;;;;;;;;;;;;15.82;52.62;101630.64;101382;1313;61291;-82
2022/12/06 07:52:11;;;;;;;;;;;;;;;15.82;52.73;101633.29;101407;1313;61429;-84
2022/12/06 07:54:37;;;;;;;;;;;;;;;15.81;52.69;101631.17;101316;1313;61320;-83
2022/12/06 07:57:02;;;;;;;;;;;;;;;15.81;52.75;101624.43;101379;1316;61414;-82
2022/12/06 07:59:28;;;;;;;;;;;;;;;15.85;52.86;101617.54;101610;1310;61381;-83
2022/12/06 08:04:17;;;;;;;;;;;;;;;15.98;53.18;101616.54;101124;1320;600220;-83
2022/12/06 08:06:42;;;;;;;;;;;;;;;16.04;53.11;101625.05;101171;1323;59382;-83
2022/12/06 08:09:08;;;;;;;;;;;;;;;16.09;53.31;101622.73;101289;1324;59262;-82
2022/12/06 08:11:33;;;;;;;;;;;;;;;16.15;53.40;101620.02;101155;1323;59348;-82
2022/12/06 08:13:59;;;;;;;;;;;;;;;16.21;53.65;101623.52;101185;1323;59406;-83
2022/12/06 08:16:24;;;;;;;;;;;;;;;16.28;53.81;101625.55;101054;1326;71502;-82
2022/12/06 08:18:51;;;;;;;;;;;;;;;16.34;54.01;101624.26;100833;1322;643274;-83
2022/12/06 08:21:17;;;;;;;;;;;;;;;16.41;54.06;101630.21;101259;1322;59301;-82
2022/12/06 08:23:42;;;;;;;;;;;;;;;16.47;53.99;101630.01;101365;1323;59309;-82
2022/12/06 08:26:11;;;;;;;;;;;;;;;16.50;54.02;101629.54;101462;1319;59336;-83
2022/12/06 08:28:37;;;;;;;;;;;;;;;16.52;53.88;101632.48;101419;1321;59705;-82
2022/12/06 08:31:09;;;;;;;;;;;;;;;16.54;53.73;101633.66;101542;1321;59799;-82
2022/12/06 08:33:36;;;;;;;;;;;;;;;16.53;53.70;101639.55;101810;1318;61410;-82
2022/12/06 08:36:07;;;;;;;;;;;;;;;16.51;53.62;101646.02;101616;1319;72674;-84
2022/12/06 08:38:35;;;;;;;;;;;;;;;16.48;53.60;101638.48;101652;1317;72721;-83
2022/12/06 08:41:01;;;;;;;;;;;;;;;16.46;53.59;101635.40;101696;1313;60045;-81
2022/12/06 08:43:26;;;;;;;;;;;;;;;16.41;53.54;101627.00;101690;1316;59434;-83
2022/12/06 08:45:54;;;;;;;;;;;;;;;16.38;53.66;101622.16;101743;1318;60656;-84
2022/12/06 08:48:20;;;;;;;;;;;;;;;16.34;53.70;101619.83;101598;1316;59949;-83
2022/12/06 08:50:46;;;;;;;;;;;;;;;16.31;53.73;101616.04;101435;1313;59701;-84
2022/12/06 08:53:12;;;;;;;;;;;;;;;16.28;53.79;101610.29;101598;1320;62779;-83
2022/12/06 08:55:38;;;;;;;;;;;;;;;16.25;53.81;101607.39;101559;1317;61285;-83
2022/12/06 08:58:03;;;;;;;;;;;;;;;16.21;53.85;101603.08;101487;1313;59721;-82
2022/12/06 09:00:30;;;;;;;;;;;;;;;16.18;53.89;101598.21;101491;1318;61404;-82
2022/12/06 09:02:55;;;;;;;;;;;;;;;16.16;53.90;101597.59;101371;1319;61070;-83
2022/12/06 09:05:21;;;;;;;;;;;;;;;16.14;53.98;101593.58;101415;1313;59713;-84
2022/12/06 09:07:46;;;;;;;;;;;;;;;16.14;54.10;101586.68;101397;1318;59666;-84
2022/12/06 09:10:12;;;;;;;;;;;;;;;16.13;54.17;101584.92;101466;1314;60005;-82
2022/12/06 09:12:37;;;;;;;;;;;;;;;16.12;54.22;101581.05;101338;1314;59741;-83
2022/12/06 09:15:04;;;;;;;;;;;;;;;16.12;54.18;101577.69;101365;1319;61782;-82
2022/12/06 09:17:30;;;;;;;;;;;;;;;16.13;54.27;101574.64;101229;1320;61140;-83
2022/12/06 09:19:56;;;;;;;;;;;;;;;16.15;54.23;101571.52;101356;1317;59747;-82
2022/12/06 09:22:22;;;;;;;;;;;;;;;16.19;54.26;101564.27;101463;1318;59632;-82
2022/12/06 09:24:47;;;;;;;;;;;;;;;16.22;54.21;101561.83;101398;1320;60654;-81
2022/12/06 09:27:13;;;;;;;;;;;;;;;16.28;54.22;101566.41;101468;1316;61569;-82
2022/12/06 09:29:38;;;;;;;;;;;;;;;16.32;54.21;101558.25;101374;1316;59862;-82
2022/12/06 09:32:04;;;;;;;;;;;;;;;16.37;54.22;101552.58;101536;1318;73614;-83
2022/12/06 09:34:30;;;;;;;;;;;;;;;16.41;54.19;101550.80;101472;1318;59910;-83
2022/12/06 09:36:57;;;;;;;;;;;;;;;16.46;54.38;101548.13;101570;1319;59714;-83
2022/12/06 09:39:24;;;;;;;;;;;;;;;16.48;54.39;101543.45;101475;1321;59547;-84
2022/12/06 09:41:53;;;;;;;;;;;;;;;16.52;54.50;101537.58;101558;1318;59616;-83
2022/12/06 09:44:21;;;;;;;;;;;;;;;16.56;54.41;101538.27;101448;1316;74389;-83
2022/12/06 09:46:47;;;;;;;;;;;;;;;16.60;54.41;101535.48;101555;1318;59900;-83
2022/12/06 09:49:19;;;;;;;;;;;;;;;16.64;54.28;101532.48;101614;1318;59670;-82
2022/12/06 09:51:52;;;;;;;;;;;;;;;16.67;54.41;101530.74;101417;1313;72810;-82
2022/12/06 09:54:20;;;;;;;;;;;;;;;16.70;54.44;101523.87;101470;1313;74083;-82
2022/12/06 09:56:56;;;;;;;;;;;;;;;16.73;54.50;101517.17;101555;1319;61318;-82
2022/12/06 09:59:21;;;;;;;;;;;;;;;16.76;54.41;101510.66;101372;1319;61395;-84
2022/12/06 10:01:59;;;;;;;;;;;;;;;16.78;54.44;101507.72;101458;1317;59789;-84
2022/12/06 10:04:40;;;;;;;;;;;;;;;16.78;54.36;101505.63;101337;1317;71791;-86
2022/12/06 10:07:18;;;;;;;;;;;;;;;16.72;54.32;101502.45;101364;1319;59958;-84
2022/12/06 10:09:56;;;;;;;;;;;;;;;16.67;54.24;101496.29;101415;1316;60621;-84
2022/12/06 10:12:31;;;;;;;;;;;;;;;16.66;54.30;101494.19;101511;1318;71476;-82
2022/12/06 10:15:02;;;;;;;;;;;;;;;16.63;54.20;101491.49;101516;1321;73922;-84
2022/12/06 10:17:28;;;;;;;;;;;;;;;16.57;54.02;101486.36;101405;1318;61098;-82
2022/12/06 10:20:12;;;;;;;;;;;;;;;16.54;53.92;101479.21;101390;1321;63300;-84
2022/12/06 10:22:40;;;;;;;;;;;;;;;16.51;53.75;101477.56;101436;1318;72604;-83
2022/12/06 10:25:12;;;;;;;;;;;;;;;16.49;53.75;101474.79;101389;1327;72950;-82
2022/12/06 10:27:48;;;;;;;;;;;;;;;16.52;53.76;101476.63;101589;1317;59942;-83
2022/12/06 10:30:14;;;;;;;;;;;;;;;16.55;53.57;101472.77;101454;1319;60032;-84
2022/12/06 10:32:53;;;;;;;;;;;;;;;16.58;53.62;101469.27;101626;1318;59898;-84
2022/12/06 10:35:29;;;;;;;;;;;;;;;16.61;53.46;101470.41;101483;1318;74139;-85
2022/12/06 10:38:10;;;;;;;;;;;;;;;16.63;53.30;101468.73;101694;1317;60236;-82
2022/12/06 10:40:48;;;;;;;;;;;;;;;16.65;53.25;101466.14;101652;1318;61148;-82
2022/12/06 10:43:17;;;;;;;;;;;;;;;16.69;53.33;101465.09;101674;1320;72640;-83
2022/12/06 10:48:29;;;;;;;;;;;;;;;16.73;53.14;101456.91;101663;1318;60915;-84
2022/12/06 10:51:00;;;;;;;;;;;;;;;16.76;53.13;101455.20;101660;1319;60053;-83
2022/12/06 10:53:27;;;;;;;;;;;;;;;16.77;52.98;101457.28;101679;1324;72632;-84
2022/12/06 10:55:53;;;;;;;;;;;;;;;16.77;53.11;101454.60;101582;1319;73861;-84
2022/12/06 10:58:40;;;;;;;;;;;;;;;16.78;52.99;101453.87;101514;1318;60368;-84
2022/12/06 11:01:07;;;;;;;;;;;;;;;16.80;53.06;101454.84;101664;1320;60067;-85
2022/12/06 11:03:49;;;;;;;;;;;;;;;16.79;52.90;101450.08;101425;1319;73915;-82
2022/12/06 11:06:17;;;;;;;;;;;;;;;16.74;52.89;101452.98;102018;1319;72814;-84
2022/12/06 11:08:45;;;;;;;;;;;;;;;16.69;52.78;101449.28;101422;1318;60134;-85
2022/12/06 11:11:14;;;;;;;;;;;;;;;16.63;52.64;101441.54;101550;1318;63392;-84
2022/12/06 11:14:08;;;;;;;;;;;;;;;16.57;52.46;101439.30;101281;1329;72582;-84
2022/12/06 11:16:33;;;;;;;;;;;;;;;16.50;52.51;101436.20;101295;1322;73859;-85
2022/12/06 11:19:00;;;;;;;;;;;;;;;16.44;52.33;101433.07;101262;1323;59783;-84
2022/12/06 11:21:58;;;;;;;;;;;;;;;16.41;52.37;101427.53;102251;1324;57848;-83
2022/12/06 11:24:25;;;;;;;;;;;;;;;16.43;52.26;101426.73;100856;1324;73631;-83
2022/12/06 11:26:51;;;;;;;;;;;;;;;16.46;52.12;101426.08;102643;1323;73217;-84
2022/12/06 11:29:17;;;;;;;;;;;;;;;16.49;52.22;101422.94;102634;1329;59234;-83
2022/12/06 11:31:44;;;;;;;;;;;;;;;16.50;52.12;101420.38;101486;1317;59746;-83
2022/12/06 11:34:13;;;;;;;;;;;;;;;16.57;52.23;101419.75;101345;1323;59756;-84
2022/12/06 11:36:39;;;;;;;;;;;;;;;16.63;52.13;101414.32;101296;1323;73112;-83
2022/12/06 11:39:06;;;;;;;;;;;;;;;16.67;52.21;101409.20;101319;1322;59688;-84
2022/12/06 11:41:32;;;;;;;;;;;;;;;16.70;52.20;101403.74;101338;1330;59650;-84
2022/12/06 11:43:58;;;;;;;;;;;;;;;16.74;52.41;101394.67;101327;1325;59706;-86
2022/12/06 11:46:25;;;;;;;;;;;;;;;16.79;52.25;101389.49;101320;1324;59702;-86
2022/12/06 11:48:51;;;;;;;;;;;;;;;16.84;52.26;101381.62;101404;1322;59727;-81
2022/12/06 11:51:20;;;;;;;;;;;;;;;16.87;52.36;101372.94;101353;1324;60574;-83
2022/12/06 11:53:50;;;;;;;;;;;;;;;16.90;52.41;101369.64;101541;1314;72327;-82
2022/12/06 11:56:25;;;;;;;;;;;;;;;16.94;52.41;101371.79;101606;1321;72940;-83
2022/12/06 11:58:57;;;;;;;;;;;;;;;16.94;52.53;101371.60;101673;1318;61049;-84
2022/12/06 12:01:35;;;;;;;;;;;;;;;16.95;52.41;101369.98;102051;1330;60451;-84
2022/12/06 12:04:00;;;;;;;;;;;;;;;16.88;52.25;101365.08;101853;1320;72654;-84
2022/12/06 12:06:25;;;;;;;;;;;;;;;16.79;52.14;101361.22;102171;1326;59313;-84
2022/12/06 12:08:58;;;;;;;;;;;;;;;16.74;52.22;101359.48;101572;1317;59762;-84
2022/12/06 12:11:32;;;;;;;;;;;;;;;16.71;52.33;101362.08;102255;1327;60210;-84
2022/12/06 12:13:59;;;;;;;;;;;;;;;16.68;52.12;101366.48;102439;1316;72446;-85
2022/12/06 12:16:24;;;;;;;;;;;;;;;16.63;52.19;101368.81;102017;1322;74145;-84
2022/12/06 12:18:51;;;;;;;;;;;;;;;16.61;52.02;101369.27;102286;1329;60508;-84
2022/12/06 12:21:17;;;;;;;;;;;;;;;16.57;51.97;101364.27;102171;1319;60592;-84
2022/12/06 12:23:43;;;;;;;;;;;;;;;16.53;52.03;101363.55;102089;1321;58980;-84
2022/12/06 12:26:13;;;;;;;;;;;;;;;16.51;51.99;101363.30;102058;1318;60481;-84
2022/12/06 12:28:38;;;;;;;;;;;;;;;16.49;51.86;101363.92;102088;1327;60234;-84
2022/12/06 12:31:08;;;;;;;;;;;;;;;16.43;51.67;101367.02;101972;1333;60484;-84
2022/12/06 12:33:33;;;;;;;;;;;;;;;16.39;51.63;101366.48;101929;1320;72572;-83
2022/12/06 12:36:01;;;;;;;;;;;;;;;16.37;51.50;101366.20;101878;1336;60802;-84
2022/12/06 12:38:27;;;;;;;;;;;;;;;16.38;51.64;101362.96;102015;1319;60900;-84
2022/12/06 12:40:56;;;;;;;;;;;;;;;16.41;51.57;101354.11;102029;1319;60546;-83
2022/12/06 12:43:23;;;;;;;;;;;;;;;16.44;51.52;101354.00;101957;1321;73775;-83
2022/12/06 12:46:08;;;;;;;;;;;;;;;16.46;51.50;101351.27;101921;1334;73630;-83
2022/12/06 12:48:33;;;;;;;;;;;;;;;16.48;51.45;101349.20;101816;1319;60450;-84
2022/12/06 12:51:00;;;;;;;;;;;;;;;16.48;51.44;101346.91;101984;1321;60521;-84
2022/12/06 12:53:28;;;;;;;;;;;;;;;16.45;51.35;101341.70;102028;1313;60508;-84
2022/12/06 12:56:04;;;;;;;;;;;;;;;16.40;51.18;101332.68;102003;1328;74823;-84
2022/12/06 12:58:29;;;;;;;;;;;;;;;16.33;51.02;101331.40;101977;1320;61601;-84
2022/12/06 13:00:55;;;;;;;;;;;;;;;16.22;51.13;101329.15;101980;1335;60680;-84